createdAt,value
2023-02-06T04:53:19.218Z,71.15
2023-02-06T04:56:21.678Z,71.42
2023-02-06T04:59:23.852Z,72.12
2023-02-06T05:02:26.338Z,71.88
2023-02-06T05:05:28.640Z,71.49
2023-02-06T05:08:31.224Z,70.68
2023-02-06T05:11:33.599Z,70.83
2023-02-06T05:14:36.009Z,71.17
2023-02-06T05:17:38.383Z,71.36
2023-02-06T05:20:41.337Z,73.19
2023-02-06T05:23:43.498Z,73.45
2023-02-06T05:26:46.549Z,72.50
2023-02-06T05:29:48.672Z,72.13
2023-02-06T05:32:51.268Z,71.78
2023-02-06T05:35:53.546Z,71.68
2023-02-06T05:38:55.968Z,71.78
2023-02-06T05:41:58.110Z,71.53
2023-02-06T05:45:00.752Z,72.46
2023-02-06T05:48:03.118Z,72.16
2023-02-06T05:51:05.773Z,72.13
2023-02-06T05:54:07.961Z,73.16
2023-02-06T05:57:11.837Z,71.88
2023-02-06T06:00:14.767Z,72.17
2023-02-06T06:03:17.276Z,71.27
2023-02-06T06:06:19.579Z,72.17
2023-02-06T06:09:22.207Z,73.39
2023-02-06T06:12:24.354Z,73.11
2023-02-06T06:15:26.953Z,70.88
2023-02-06T06:18:29.049Z,70.65
2023-02-06T06:21:31.413Z,70.97
2023-02-06T06:24:33.623Z,72.03
2023-02-06T06:27:35.986Z,70.27
2023-02-06T06:30:38.299Z,70.38
2023-02-06T06:33:41.594Z,70.77
2023-02-06T06:36:43.755Z,70.13
2023-02-06T06:39:46.182Z,68.66
2023-02-06T06:42:48.288Z,69.47
2023-02-06T06:45:51.019Z,69.87
2023-02-06T06:48:53.266Z,70.16
2023-02-06T06:51:55.671Z,71.15
2023-02-06T06:54:58.340Z,69.33
2023-02-06T06:58:01.033Z,69.50
2023-02-06T07:01:03.266Z,69.17
2023-02-06T07:04:05.734Z,68.38
2023-02-06T07:07:08.028Z,68.15
2023-02-06T07:10:12.139Z,68.51
2023-02-06T07:13:15.550Z,68.59
2023-02-06T07:16:18.121Z,67.25
2023-02-06T07:19:21.313Z,67.72
2023-02-06T07:22:25.475Z,68.47
2023-02-06T07:25:27.917Z,68.27
2023-02-06T07:28:31.757Z,67.25
2023-02-06T07:31:33.873Z,67.13
2023-02-06T07:34:36.579Z,68.44
2023-02-06T07:37:38.787Z,68.80
2023-02-06T07:40:45.438Z,66.95
2023-02-06T07:43:48.047Z,67.04
2023-02-06T07:46:52.001Z,66.05
2023-02-06T07:49:54.087Z,65.36
2023-02-06T07:52:56.751Z,66.63
2023-02-06T07:55:59.026Z,65.82
2023-02-06T07:59:01.616Z,66.04
2023-02-06T08:02:03.821Z,66.03
2023-02-06T08:05:06.585Z,59.45
2023-02-06T08:08:10.621Z,60.74
2023-02-06T08:11:16.132Z,53.22
2023-02-06T08:14:18.235Z,53.51
2023-02-06T08:17:21.268Z,53.19
2023-02-06T08:20:23.680Z,51.19
2023-02-06T08:23:27.405Z,51.86
2023-02-06T08:26:30.760Z,50.81
2023-02-06T08:29:40.314Z,49.77
2023-02-06T08:32:42.456Z,49.98
2023-02-06T08:35:44.881Z,50.00
2023-02-06T08:38:47.701Z,50.79
2023-02-06T08:41:50.120Z,49.82
2023-02-06T08:44:53.697Z,50.02
2023-02-06T08:47:56.082Z,48.15
2023-02-06T08:51:03.187Z,48.79
2023-02-06T08:54:08.580Z,47.46
2023-02-06T08:57:12.907Z,48.26
2023-02-06T09:00:16.388Z,47.01
2023-02-06T09:03:18.547Z,46.78
2023-02-06T09:06:21.040Z,48.37
2023-02-06T09:09:23.424Z,46.54
2023-02-06T09:12:25.914Z,46.48
2023-02-06T09:15:28.222Z,46.61
2023-02-06T09:18:30.747Z,46.55
2023-02-06T09:21:35.138Z,47.08
2023-02-06T09:24:38.086Z,47.04
2023-02-06T09:27:40.370Z,48.53
2023-02-06T09:30:42.813Z,47.69
2023-02-06T09:33:44.992Z,49.03
2023-02-06T09:36:47.390Z,47.92
2023-02-06T09:39:49.492Z,46.02
2023-02-06T09:42:53.469Z,44.70
2023-02-06T09:46:00.214Z,45.86
2023-02-06T09:49:12.342Z,45.69
2023-02-06T09:52:50.890Z,44.58
2023-02-06T09:56:12.641Z,45.07
2023-02-06T09:59:26.972Z,45.41
2023-02-06T10:03:06.799Z,44.79
2023-02-06T10:06:09.435Z,44.01
2023-02-06T10:09:16.535Z,45.56
2023-02-06T10:12:41.379Z,43.78
2023-02-06T10:15:47.109Z,43.46
2023-02-06T10:18:54.570Z,43.68
2023-02-06T10:22:04.880Z,44.49
2023-02-06T10:25:24.918Z,44.59
2023-02-06T10:28:33.420Z,44.54
2023-02-06T10:31:53.946Z,43.81
2023-02-06T10:35:21.727Z,42.81
2023-02-06T10:38:35.200Z,43.28
2023-02-06T10:42:14.119Z,43.30
2023-02-06T10:45:22.408Z,44.11
2023-02-06T10:49:05.779Z,43.57
2023-02-06T10:52:27.510Z,43.61
2023-02-06T10:55:49.167Z,44.58
2023-02-06T10:58:59.260Z,45.16
2023-02-06T11:02:11.790Z,44.53
2023-02-06T11:05:20.189Z,43.53
2023-02-06T11:08:29.780Z,43.68
2023-02-06T11:11:38.075Z,42.97
2023-02-06T11:14:40.794Z,43.81
2023-02-06T11:17:44.828Z,42.98
2023-02-06T11:20:49.016Z,43.14
2023-02-06T11:24:09.092Z,43.04
2023-02-06T11:27:20.572Z,43.48
2023-02-06T11:30:31.995Z,43.72
2023-02-06T11:33:46.753Z,44.67
2023-02-06T11:36:55.833Z,43.78
2023-02-06T11:40:16.680Z,42.04
2023-02-06T11:43:22.811Z,41.77
2023-02-06T11:46:27.517Z,42.20
2023-02-06T11:49:33.102Z,42.78
2023-02-06T11:52:39.940Z,42.67
2023-02-06T11:55:43.793Z,43.06
2023-02-06T11:58:46.514Z,42.65
2023-02-06T12:01:49.315Z,42.44
2023-02-06T12:05:02.326Z,41.68
2023-02-06T12:08:11.671Z,42.12
2023-02-06T12:11:25.757Z,42.29
2023-02-06T12:14:31.852Z,42.71
2023-02-06T12:17:39.931Z,41.69
2023-02-06T12:20:50.810Z,41.32
2023-02-06T12:24:01.531Z,41.50
2023-02-06T12:27:16.967Z,41.67
2023-02-06T12:30:31.481Z,41.83
2023-02-06T12:33:47.849Z,41.20
2023-02-06T12:37:10.806Z,41.81
2023-02-06T12:40:47.887Z,40.21
2023-02-06T12:43:57.261Z,40.83
2023-02-06T12:47:07.467Z,42.05
2023-02-06T12:50:19.045Z,40.57
2023-02-06T12:53:27.104Z,42.93
2023-02-06T12:57:11.724Z,41.30
2023-02-06T13:00:45.800Z,41.22
2023-02-06T13:03:55.867Z,43.45
2023-02-06T13:07:05.159Z,44.40
2023-02-06T13:10:08.618Z,43.28
2023-02-06T13:13:33.081Z,43.36
2023-02-06T13:16:48.755Z,42.83
2023-02-06T13:20:14.339Z,43.51
2023-02-06T13:23:16.991Z,42.61
2023-02-06T13:26:26.714Z,44.67
2023-02-06T13:29:38.911Z,42.92
2023-02-06T13:32:45.375Z,43.49
2023-02-06T13:36:06.847Z,42.60
2023-02-06T13:39:31.225Z,42.91
2023-02-06T13:42:43.814Z,43.36
2023-02-06T13:45:59.290Z,43.48
2023-02-06T13:49:11.851Z,43.28
2023-02-06T13:52:31.911Z,42.62
2023-02-06T13:55:47.720Z,43.01
2023-02-06T13:58:55.316Z,43.20
2023-02-06T14:02:03.296Z,44.43
2023-02-06T14:05:16.917Z,43.44
2023-02-06T14:08:48.224Z,44.42
2023-02-06T14:12:35.566Z,45.31
2023-02-06T14:15:58.700Z,43.96
2023-02-06T14:19:42.513Z,43.85
2023-02-06T14:22:55.018Z,43.54
2023-02-06T14:26:21.959Z,43.54
2023-02-06T14:29:45.743Z,43.89
2023-02-06T14:33:15.623Z,44.88
2023-02-06T14:36:30.114Z,44.94
2023-02-06T14:39:35.550Z,45.24
2023-02-06T14:42:41.256Z,46.03
2023-02-06T14:46:05.540Z,45.15
2023-02-06T14:49:16.367Z,46.45
2023-02-06T14:52:24.161Z,45.26
2023-02-06T14:55:36.360Z,44.89
2023-02-06T14:58:39.090Z,46.75
2023-02-06T15:01:43.511Z,45.48
2023-02-06T15:04:47.453Z,47.30
2023-02-06T15:07:57.487Z,46.79
2023-02-06T15:11:02.443Z,46.62
2023-02-06T15:14:18.718Z,45.88
2023-02-06T15:17:22.995Z,45.63
2023-02-06T15:20:40.200Z,46.54
2023-02-06T15:23:49.967Z,46.38
2023-02-06T15:27:14.463Z,47.54
2023-02-06T15:30:25.072Z,47.81
2023-02-06T15:33:30.580Z,48.60
2023-02-06T15:36:36.726Z,47.87
2023-02-06T15:39:40.447Z,48.20
2023-02-06T15:42:43.509Z,48.80
2023-02-06T15:45:47.368Z,49.08
2023-02-06T15:48:52.137Z,48.70
2023-02-06T15:51:55.070Z,48.83
2023-02-06T15:54:59.450Z,47.69
2023-02-06T15:58:04.641Z,48.30
2023-02-06T16:01:15.714Z,47.23
2023-02-06T16:04:29.242Z,47.41
2023-02-06T16:07:35.646Z,47.68
2023-02-06T16:10:39.894Z,47.00
2023-02-06T16:13:45.733Z,48.04
2023-02-06T16:17:22.505Z,48.04
2023-02-06T16:20:32.465Z,47.62
2023-02-06T16:24:17.449Z,47.19
2023-02-06T16:27:25.503Z,47.50
2023-02-06T16:30:31.984Z,47.70
2023-02-06T16:34:03.183Z,47.79
2023-02-06T16:37:12.263Z,47.80
2023-02-06T16:40:14.380Z,48.32
2023-02-06T16:43:16.765Z,49.75
